createdAt,value
2022-11-04T00:00:00.695Z,986.9
2022-11-04T00:05:00.612Z,986.9
2022-11-04T00:10:00.570Z,986.7
2022-11-04T00:15:00.361Z,986.9
2022-11-04T00:20:00.341Z,986.7
2022-11-04T00:25:00.304Z,986.9
2022-11-04T00:30:00.435Z,987.1
2022-11-04T00:35:00.259Z,987.1
2022-11-04T00:40:00.275Z,987.3
2022-11-04T00:45:00.281Z,987.3
2022-11-04T00:50:00.326Z,987.3
2022-11-04T00:55:00.324Z,987.5
2022-11-04T01:00:00.279Z,987.3
2022-11-04T01:05:00.292Z,987.5
2022-11-04T01:10:00.275Z,987.3
2022-11-04T01:15:00.300Z,987.1
2022-11-04T01:20:00.404Z,987.1
2022-11-04T01:25:00.306Z,987.1
2022-11-04T01:30:00.312Z,987.1
2022-11-04T01:35:00.323Z,987.1
2022-11-04T01:40:00.326Z,987.1
2022-11-04T01:45:00.316Z,987.1
2022-11-04T01:50:00.316Z,986.9
2022-11-04T01:55:00.318Z,987.1
2022-11-04T02:00:00.423Z,987.1
2022-11-04T02:05:00.482Z,987.1
2022-11-04T02:10:00.516Z,987.1
2022-11-04T02:15:00.517Z,987.1
2022-11-04T02:20:00.529Z,987.1
2022-11-04T02:25:00.344Z,987.1
2022-11-04T02:30:00.358Z,987.1
2022-11-04T02:35:00.405Z,987.1
2022-11-04T02:40:00.365Z,987.1
2022-11-04T02:45:00.427Z,987.1
2022-11-04T02:50:00.377Z,987.1
2022-11-04T02:55:00.421Z,987.1
2022-11-04T03:00:00.402Z,987.1
2022-11-04T03:05:00.894Z,987.1
2022-11-04T03:10:00.947Z,987.1
2022-11-04T03:15:00.873Z,987.1
2022-11-04T03:20:00.915Z,987.1
2022-11-04T03:25:00.883Z,987.1
2022-11-04T03:30:01.068Z,987.1
2022-11-04T03:35:00.932Z,987.1
2022-11-04T03:40:00.931Z,987.1
2022-11-04T03:45:00.846Z,987.1
2022-11-04T03:50:00.840Z,987.1
2022-11-04T03:55:00.864Z,987.1
2022-11-04T04:00:00.864Z,987.1
2022-11-04T04:05:00.859Z,987.1
2022-11-04T04:10:00.882Z,987.1
2022-11-04T04:15:00.885Z,987.1
2022-11-04T04:20:00.867Z,987.3
2022-11-04T04:25:00.913Z,987.5
2022-11-04T04:30:00.898Z,987.5
2022-11-04T04:35:00.898Z,987.3
2022-11-04T04:40:00.983Z,987.1
2022-11-04T04:45:00.974Z,987.1
2022-11-04T04:50:01.022Z,987.1
2022-11-04T04:55:00.932Z,987.1
2022-11-04T05:00:01.313Z,987.1
2022-11-04T05:05:00.948Z,987.1
2022-11-04T05:10:00.940Z,986.9
2022-11-04T05:15:00.966Z,987.1
2022-11-04T05:20:00.952Z,987.1
2022-11-04T05:25:00.946Z,987.1
2022-11-04T05:30:00.959Z,986.7
2022-11-04T05:35:00.973Z,986.9
2022-11-04T05:40:00.970Z,986.7
2022-11-04T05:45:00.978Z,986.7
2022-11-04T05:50:00.987Z,986.7
2022-11-04T05:55:00.828Z,986.9
2022-11-04T06:00:00.837Z,986.7
2022-11-04T06:05:00.838Z,986.7
2022-11-04T06:10:00.202Z,986.7
2022-11-04T06:15:00.170Z,986.9
2022-11-04T06:20:00.422Z,986.9
2022-11-04T06:25:00.220Z,986.7
2022-11-04T06:30:00.199Z,986.7
2022-11-04T06:35:00.188Z,986.7
2022-11-04T06:40:00.241Z,986.9
2022-11-04T06:45:00.184Z,986.9
2022-11-04T06:50:01.628Z,986.7
2022-11-04T06:55:00.197Z,986.7
2022-11-04T07:00:00.209Z,986.9
2022-11-04T07:05:00.375Z,986.7
2022-11-04T07:10:00.216Z,986.7
2022-11-04T07:20:00.256Z,986.7
2022-11-04T07:25:00.292Z,986.7
2022-11-04T07:30:00.263Z,986.7
2022-11-04T07:35:00.239Z,986.2
2022-11-04T07:40:00.252Z,986.7
2022-11-04T07:45:00.265Z,986.4
2022-11-04T07:50:00.453Z,986.2
2022-11-04T07:55:00.284Z,985.8
2022-11-04T08:00:00.269Z,986
2022-11-04T08:05:00.309Z,985.8
2022-11-04T08:10:00.306Z,985.8
2022-11-04T08:15:00.304Z,985.4
2022-11-04T08:20:00.321Z,985.4
2022-11-04T08:25:00.302Z,985.1
2022-11-04T08:30:00.310Z,985.4
2022-11-04T08:35:00.316Z,984.9
2022-11-04T08:40:00.325Z,984.7
2022-11-04T08:45:00.392Z,984.5
2022-11-04T08:50:00.332Z,984.9
2022-11-04T08:55:00.368Z,984.5
2022-11-04T09:00:00.353Z,984.7
2022-11-04T09:05:00.374Z,984.7
2022-11-04T09:10:00.369Z,984.5
2022-11-04T09:15:00.354Z,984.3
2022-11-04T09:20:00.384Z,984
2022-11-04T09:25:00.368Z,983.6
2022-11-04T09:30:00.394Z,983.2
2022-11-04T09:35:00.380Z,981.2
2022-11-04T09:40:00.377Z,982.1
2022-11-04T09:45:20.503Z,982.3
2022-11-04T09:50:00.383Z,981
2022-11-04T09:55:00.411Z,980.6
2022-11-04T10:00:00.413Z,980.6
2022-11-04T10:05:00.418Z,980.8
2022-11-04T10:10:00.412Z,980.6
2022-11-04T10:15:00.408Z,978.8
2022-11-04T10:20:00.430Z,978.6
2022-11-04T10:25:00.424Z,978.4
2022-11-04T10:30:00.433Z,978
2022-11-04T10:35:00.462Z,978.4
2022-11-04T10:40:00.443Z,978.8
2022-11-04T10:45:00.443Z,978
2022-11-04T10:50:26.547Z,977.7
2022-11-04T10:55:00.443Z,977.1
2022-11-04T11:00:00.453Z,976.7
2022-11-04T11:05:00.451Z,975.4
2022-11-04T11:10:00.462Z,976.2
2022-11-04T11:15:00.473Z,974.5
2022-11-04T11:20:00.507Z,975.8
2022-11-04T11:25:00.478Z,975.4
2022-11-04T11:30:00.493Z,974
2022-11-04T11:35:00.485Z,972.3
2022-11-04T11:40:00.495Z,971.4
2022-11-04T11:45:00.510Z,972.7
2022-11-04T11:50:00.509Z,970.6
2022-11-04T11:55:00.510Z,968.8
2022-11-04T12:10:00.320Z,969.3
2022-11-04T12:15:00.181Z,968.8
2022-11-04T12:20:00.112Z,968
2022-11-04T12:25:00.113Z,969
2022-11-04T12:30:00.171Z,969.3
2022-11-04T12:35:00.165Z,970.6
2022-11-04T12:40:00.122Z,969.9
2022-11-04T12:45:00.135Z,971
2022-11-04T12:50:00.172Z,971.9
2022-11-04T12:55:00.139Z,971
2022-11-04T13:00:00.154Z,971.4
2022-11-04T13:05:00.142Z,971
2022-11-04T13:10:00.151Z,971.4
2022-11-04T13:15:00.166Z,971.4
2022-11-04T13:20:00.169Z,971.9
2022-11-04T13:25:00.172Z,972.7
2022-11-04T13:30:00.186Z,972.5
2022-11-04T13:35:00.173Z,971
2022-11-04T13:40:00.199Z,972.3
2022-11-04T13:45:00.186Z,972.7
2022-11-04T13:50:00.222Z,972.7
2022-11-04T13:55:00.198Z,972.5
2022-11-04T14:00:00.206Z,973.6
2022-11-04T14:05:00.223Z,974.5
2022-11-04T14:10:00.221Z,974.9
2022-11-04T14:15:00.227Z,975.8
2022-11-04T14:20:00.227Z,976.2
2022-11-04T14:25:00.245Z,976.7
2022-11-04T14:30:00.255Z,977.5
2022-11-04T14:35:00.249Z,977.1
2022-11-04T14:40:00.249Z,977.1
2022-11-04T14:45:00.258Z,976.4
2022-11-04T14:50:00.296Z,975.6
2022-11-04T14:55:00.347Z,975.6
2022-11-04T15:00:00.264Z,974.5
2022-11-04T15:05:00.280Z,974.9
2022-11-04T15:10:00.278Z,975.1
2022-11-04T15:15:00.323Z,974.9
2022-11-04T15:20:00.329Z,975.1
2022-11-04T15:25:00.311Z,975.4
2022-11-04T15:30:00.329Z,975.6
2022-11-04T15:35:00.314Z,976
2022-11-04T15:40:00.317Z,976.9
2022-11-04T15:45:00.312Z,977.5
2022-11-04T15:50:00.321Z,977.3
2022-11-04T15:55:00.326Z,977.7
2022-11-04T16:00:00.335Z,978.4
2022-11-04T16:05:00.336Z,978.4
2022-11-04T16:10:04.064Z,978.8
2022-11-04T16:15:00.351Z,978.4
2022-11-04T16:20:00.397Z,979.3
2022-11-04T16:25:00.366Z,979.7
2022-11-04T16:30:00.435Z,980.1
2022-11-04T16:35:00.363Z,980.6
2022-11-04T16:40:00.467Z,981
2022-11-04T16:45:00.375Z,980.8
2022-11-04T16:50:00.380Z,981
2022-11-04T16:55:00.383Z,980.6
2022-11-04T17:00:00.390Z,980.6
2022-11-04T17:05:00.398Z,981
2022-11-04T17:10:00.413Z,981.2
2022-11-04T17:15:00.430Z,981.4
2022-11-04T17:20:00.424Z,981.7
2022-11-04T17:25:00.440Z,981.9
2022-11-04T17:30:00.440Z,981.9
2022-11-04T17:35:00.459Z,981.9
2022-11-04T17:40:00.454Z,982.3
2022-11-04T17:45:00.480Z,982.3
2022-11-04T17:50:00.479Z,982.3
2022-11-04T17:55:00.483Z,982.3
2022-11-04T18:00:00.480Z,982.1
2022-11-04T18:05:00.447Z,983
2022-11-04T18:10:00.315Z,983.2
2022-11-04T18:15:00.167Z,983.6
2022-11-04T18:20:00.139Z,983.6
2022-11-04T18:25:00.316Z,983.6
2022-11-04T18:30:00.166Z,983.6
2022-11-04T18:35:00.163Z,983.6
2022-11-04T18:40:00.181Z,983.6
2022-11-04T18:45:00.175Z,983.6
2022-11-04T18:50:00.190Z,983.8
2022-11-04T18:55:00.187Z,984
2022-11-04T19:00:00.199Z,984
2022-11-04T19:05:00.204Z,984.5
2022-11-04T19:10:00.220Z,984.5
2022-11-04T19:15:00.209Z,984.5
2022-11-04T19:20:00.251Z,984.9
2022-11-04T19:25:00.231Z,984.9
2022-11-04T19:30:00.230Z,984.9
2022-11-04T19:35:00.227Z,984.9
2022-11-04T19:40:00.246Z,984.9
2022-11-04T19:45:00.286Z,984.9
2022-11-04T19:50:00.292Z,985.1
2022-11-04T19:55:00.291Z,984.9
2022-11-04T20:00:00.285Z,985.1
2022-11-04T20:05:01.279Z,985.1
2022-11-04T20:10:00.270Z,985.4
2022-11-04T20:15:00.273Z,985.1
2022-11-04T20:20:00.342Z,985.4
2022-11-04T20:25:00.295Z,985.4
2022-11-04T20:30:00.310Z,985.4
2022-11-04T20:35:00.315Z,985.8
2022-11-04T20:40:00.497Z,985.6
2022-11-04T20:45:00.342Z,985.4
2022-11-04T20:50:00.410Z,985.1
2022-11-04T20:55:00.422Z,985.1
2022-11-04T21:00:00.429Z,984.9
2022-11-04T21:05:00.336Z,985.1
2022-11-04T21:10:00.349Z,984.9
2022-11-04T21:15:00.354Z,985.4
2022-11-04T21:20:00.365Z,985.6
2022-11-04T21:25:00.376Z,985.6
2022-11-04T21:30:00.375Z,985.4
2022-11-04T21:35:00.416Z,985.4
2022-11-04T21:40:00.381Z,985.4
2022-11-04T21:45:00.388Z,985.6
2022-11-04T21:50:00.398Z,985.4
2022-11-04T21:55:00.401Z,985.4
2022-11-04T22:00:00.434Z,985.4
2022-11-04T22:05:00.336Z,985.4
2022-11-04T22:10:00.340Z,985.4
2022-11-04T22:15:00.352Z,985.1
2022-11-04T22:20:00.456Z,984.9
2022-11-04T22:25:00.457Z,984.9
2022-11-04T22:30:00.475Z,984.9
2022-11-04T22:35:00.439Z,984.7
2022-11-04T22:40:00.489Z,984.9
2022-11-04T22:45:00.514Z,984.9
2022-11-04T22:50:00.468Z,984.9
2022-11-04T22:55:00.379Z,984.9
2022-11-04T23:00:00.412Z,984.5
2022-11-04T23:05:00.401Z,984.9
2022-11-04T23:10:00.438Z,984.9
2022-11-04T23:15:00.404Z,984.7
2022-11-04T23:20:00.410Z,984.5
2022-11-04T23:25:00.415Z,984.7
2022-11-04T23:30:00.501Z,984.5
2022-11-04T23:35:00.447Z,984.9
2022-11-04T23:40:00.437Z,984.9
2022-11-04T23:45:00.434Z,984.7
2022-11-04T23:50:00.446Z,984.7
2022-11-04T23:55:00.489Z,985.4
